Terminal Aerodrome Forecast
Issued by NWS

Home | Current Version | Previous Version | Text Only | Print | Product List | Glossary On
Versions: 1 2 3 4 5 6 7 8 9 10 11 12 13 14 15 16 17 18 19 20 21 22 23
000
FTUS43 KPAH 172300
TAFCGI
TAF
KCGI 172320Z 1800/1824 VRB02KT P6SM SCT100 OVC250
     FM180200 03004KT P6SM SCT070 OVC080
     FM180700 VRB03KT 3SM -SNPLRA BR SCT005 OVC015
      TEMPO 1808/1811 1SM -FZRASNPL OVC005
     FM181100 05004KT 4SM BR OVC010 PROB30 1811/1814 2SM -FZRAPL
     FM181800 04004KT P6SM SCT010 OVC030=

USA.gov is the U.S. government's official web portal to all federal, state and local government web resources and services.